Time;durP1;ratioP1;P1;durP2;ratioP2;P2;SDS_P1;SDS_P2;PMS_P1;PMS_P2;Temp;Humidity;BMP_temperature;BMP_pressure;BME280_temperature;BME280_humidity;BME280_pressure;Samples;Min_cycle;Max_cycle;Signal;HPM_P1;HPM_P2
2022/04/07 00:01:44;;;;;;;4.15;2.55;;;;;;;;;;4953976;28;20460;-84
2022/04/07 00:04:09;;;;;;;4.97;2.60;;;;;;;;;;4956721;28;20062;-84
2022/04/07 00:06:35;;;;;;;3.55;2.55;;;;;;;;;;4958122;28;20460;-84
2022/04/07 00:09:02;;;;;;;4.13;2.30;;;;;;;;;;4958300;28;20031;-84
2022/04/07 00:11:28;;;;;;;3.80;2.17;;;;;;;;;;4957595;28;20534;-84
2022/04/07 00:13:53;;;;;;;3.83;2.35;;;;;;;;;;4957873;28;20023;-84
2022/04/07 00:16:18;;;;;;;4.32;2.28;;;;;;;;;;4957759;28;20479;-84
2022/04/07 00:18:43;;;;;;;4.95;2.35;;;;;;;;;;4972545;28;20027;-84
2022/04/07 00:21:12;;;;;;;3.97;2.22;;;;;;;;;;4957561;28;20488;-85
2022/04/07 00:23:38;;;;;;;6.47;2.25;;;;;;;;;;4957971;28;20019;-85
2022/04/07 00:26:03;;;;;;;2.63;2.42;;;;;;;;;;4958031;28;20034;-85
2022/04/07 00:28:28;;;;;;;4.80;2.90;;;;;;;;;;4957663;28;20025;-85
2022/04/07 00:30:53;;;;;;;5.32;2.90;;;;;;;;;;4957583;28;20027;-85
2022/04/07 00:33:18;;;;;;;5.55;3.20;;;;;;;;;;4957928;28;20050;-84
2022/04/07 00:35:44;;;;;;;3.20;2.88;;;;;;;;;;4957515;28;20020;-84
2022/04/07 00:38:09;;;;;;;7.07;3.10;;;;;;;;;;4957421;28;20050;-84
2022/04/07 00:40:34;;;;;;;5.45;3.13;;;;;;;;;;4957330;28;20050;-85
2022/04/07 00:42:59;;;;;;;7.45;3.00;;;;;;;;;;4957200;28;20464;-84
2022/04/07 00:45:25;;;;;;;6.68;3.08;;;;;;;;;;4957828;28;20102;-85
2022/04/07 00:47:50;;;;;;;5.00;2.70;;;;;;;;;;4983410;23;20043;-83
2022/04/07 00:50:17;;;;;;;4.88;3.00;;;;;;;;;;4975859;28;20027;-84
2022/04/07 00:52:49;;;;;;;7.88;2.83;;;;;;;;;;4976180;28;20031;-84
2022/04/07 00:55:15;;;;;;;7.32;3.03;;;;;;;;;;4975285;28;20015;-83
2022/04/07 00:57:40;;;;;;;7.05;3.20;;;;;;;;;;4976282;28;20022;-84
2022/04/07 01:00:07;;;;;;;5.18;2.85;;;;;;;;;;4976155;28;20077;-84
2022/04/07 01:02:32;;;;;;;5.32;3.00;;;;;;;;;;4975121;28;20026;-84
2022/04/07 01:04:57;;;;;;;2.72;2.50;;;;;;;;;;4974947;28;20427;-84
2022/04/07 01:07:25;;;;;;;5.45;2.90;;;;;;;;;;4976234;28;20058;-83
2022/04/07 01:09:51;;;;;;;8.98;3.25;;;;;;;;;;4976317;28;20467;-84
2022/04/07 01:12:16;;;;;;;4.70;2.92;;;;;;;;;;4976218;28;20034;-84
2022/04/07 01:14:53;;;;;;;5.68;2.88;;;;;;;;;;4975774;28;20464;-83
2022/04/07 01:17:20;;;;;;;5.72;3.05;;;;;;;;;;4976384;28;20101;-83
2022/04/07 01:19:46;;;;;;;6.10;3.20;;;;;;;;;;4975469;28;20166;-83
2022/04/07 01:22:11;;;;;;;7.18;3.25;;;;;;;;;;4976129;28;20571;-83
2022/04/07 01:24:36;;;;;;;5.85;3.33;;;;;;;;;;4976047;28;20022;-84
2022/04/07 01:27:03;;;;;;;5.22;3.90;;;;;;;;;;4974708;28;20034;-84
2022/04/07 01:29:29;;;;;;;9.63;3.60;;;;;;;;;;4975758;28;20194;-83
2022/04/07 01:31:54;;;;;;;5.65;3.40;;;;;;;;;;4974041;28;20069;-84
2022/04/07 01:34:20;;;;;;;5.40;3.30;;;;;;;;;;4975626;28;20019;-84
2022/04/07 01:36:46;;;;;;;4.72;2.92;;;;;;;;;;4974308;28;20014;-83
2022/04/07 01:39:13;;;;;;;6.65;3.22;;;;;;;;;;4974858;28;20026;-83
2022/04/07 01:41:39;;;;;;;5.03;3.20;;;;;;;;;;4975665;28;20463;-84
2022/04/07 01:44:05;;;;;;;5.25;2.75;;;;;;;;;;4974315;28;20030;-84
2022/04/07 01:46:31;;;;;;;6.45;3.53;;;;;;;;;;4974092;28;20038;-84
2022/04/07 01:48:58;;;;;;;5.82;2.97;;;;;;;;;;4974260;28;20114;-84
2022/04/07 01:51:24;;;;;;;8.25;3.03;;;;;;;;;;4975638;28;20102;-83
2022/04/07 01:53:49;;;;;;;6.07;3.17;;;;;;;;;;4974205;28;20027;-83
2022/04/07 01:56:16;;;;;;;7.63;3.10;;;;;;;;;;4975139;28;20026;-84
2022/04/07 01:58:41;;;;;;;6.80;3.28;;;;;;;;;;4974960;28;20019;-84
2022/04/07 02:01:06;;;;;;;4.65;3.15;;;;;;;;;;4974079;28;20019;-84
2022/04/07 02:03:32;;;;;;;5.85;2.97;;;;;;;;;;4975491;28;20038;-84
2022/04/07 02:06:16;;;;;;;4.53;3.22;;;;;;;;;;4974294;28;20067;-83
2022/04/07 02:08:42;;;;;;;5.68;2.90;;;;;;;;;;4975024;28;20475;-84
2022/04/07 02:11:07;;;;;;;5.25;2.88;;;;;;;;;;4975244;28;20033;-84
2022/04/07 02:13:33;;;;;;;5.38;3.50;;;;;;;;;;4973913;28;20035;-84
2022/04/07 02:15:59;;;;;;;8.43;3.17;;;;;;;;;;4973991;28;20023;-84
2022/04/07 02:18:24;;;;;;;5.70;3.30;;;;;;;;;;4973752;28;20364;-83
2022/04/07 02:20:49;;;;;;;6.85;3.60;;;;;;;;;;4975075;28;20014;-84
2022/04/07 02:23:14;;;;;;;6.30;3.53;;;;;;;;;;4973831;28;20477;-84
2022/04/07 02:25:39;;;;;;;4.78;3.10;;;;;;;;;;4972991;28;20029;-84
2022/04/07 02:28:04;;;;;;;7.30;3.40;;;;;;;;;;4973812;28;20026;-84
2022/04/07 02:30:30;;;;;;;8.40;2.88;;;;;;;;;;4973687;28;20026;-83
2022/04/07 02:32:55;;;;;;;6.65;2.88;;;;;;;;;;4974453;28;20043;-83
2022/04/07 02:35:20;;;;;;;7.63;2.95;;;;;;;;;;4973556;28;20022;-84
2022/04/07 02:37:45;;;;;;;3.50;2.53;;;;;;;;;;4973561;28;20078;-84
2022/04/07 02:40:11;;;;;;;4.22;2.63;;;;;;;;;;4973209;28;20518;-84
2022/04/07 02:42:36;;;;;;;8.23;2.80;;;;;;;;;;4973331;28;20131;-84
2022/04/07 02:45:02;;;;;;;6.53;2.53;;;;;;;;;;4973381;28;20027;-84
2022/04/07 02:47:31;;;;;;;10.77;2.72;;;;;;;;;;4974546;28;20030;-84
2022/04/07 02:49:56;;;;;;;2.63;2.42;;;;;;;;;;4974537;28;20472;-84
2022/04/07 02:52:22;;;;;;;4.53;2.40;;;;;;;;;;4974513;28;20093;-83
2022/04/07 02:54:47;;;;;;;6.70;2.85;;;;;;;;;;4973169;28;20023;-84
2022/04/07 02:57:12;;;;;;;7.53;2.75;;;;;;;;;;4974335;28;20034;-83
2022/04/07 02:59:37;;;;;;;5.30;2.30;;;;;;;;;;4972931;28;20018;-83
2022/04/07 03:02:03;;;;;;;10.70;2.58;;;;;;;;;;4973419;28;20081;-83
2022/04/07 03:04:28;;;;;;;3.85;2.28;;;;;;;;;;4974490;28;20022;-83
2022/04/07 03:06:53;;;;;;;6.63;2.63;;;;;;;;;;4973083;28;20035;-83
2022/04/07 03:09:19;;;;;;;11.32;3.90;;;;;;;;;;4973294;28;20046;-84
2022/04/07 03:11:46;;;;;;;5.95;2.15;;;;;;;;;;4973769;28;20033;-84
2022/04/07 03:14:11;;;;;;;5.88;2.45;;;;;;;;;;4972870;28;20038;-83
2022/04/07 03:16:36;;;;;;;6.40;2.63;;;;;;;;;;4973268;28;20018;-83
2022/04/07 03:19:02;;;;;;;7.82;2.83;;;;;;;;;;4972892;28;20023;-83
2022/04/07 03:21:27;;;;;;;8.88;2.90;;;;;;;;;;4974008;28;20011;-83
2022/04/07 03:23:52;;;;;;;5.47;2.72;;;;;;;;;;4974159;28;20030;-83
2022/04/07 03:26:17;;;;;;;4.18;2.92;;;;;;;;;;4972733;28;20545;-83
2022/04/07 03:28:42;;;;;;;7.70;2.90;;;;;;;;;;4972650;28;20027;-84
2022/04/07 03:31:07;;;;;;;6.57;2.90;;;;;;;;;;4974126;28;20023;-83
2022/04/07 03:33:33;;;;;;;7.90;3.20;;;;;;;;;;4972150;28;20035;-83
2022/04/07 03:35:58;;;;;;;5.57;2.78;;;;;;;;;;4972311;28;20022;-84
2022/04/07 03:38:23;;;;;;;4.75;2.58;;;;;;;;;;4972168;28;20081;-84
2022/04/07 03:40:49;;;;;;;5.05;2.50;;;;;;;;;;4972470;28;20609;-84
2022/04/07 03:43:14;;;;;;;7.97;3.30;;;;;;;;;;4974289;28;20022;-84
2022/04/07 03:45:39;;;;;;;5.28;2.45;;;;;;;;;;4973627;28;20019;-84
2022/04/07 03:48:04;;;;;;;3.80;2.38;;;;;;;;;;4972347;28;20471;-84
2022/04/07 03:50:29;;;;;;;6.13;2.65;;;;;;;;;;4971745;28;20530;-84
2022/04/07 03:52:55;;;;;;;6.40;2.47;;;;;;;;;;4973270;28;20037;-84
2022/04/07 03:55:22;;;;;;;9.55;2.85;;;;;;;;;;4970890;28;20118;-84
2022/04/07 03:57:47;;;;;;;10.15;2.90;;;;;;;;;;4971615;28;20065;-83
2022/04/07 04:00:12;;;;;;;7.03;3.35;;;;;;;;;;4972660;28;20066;-84
2022/04/07 04:02:38;;;;;;;7.85;3.17;;;;;;;;;;4972426;28;20055;-83
2022/04/07 04:05:03;;;;;;;11.02;3.08;;;;;;;;;;4971789;28;20019;-84
2022/04/07 04:07:29;;;;;;;7.88;2.80;;;;;;;;;;4971155;28;20023;-85
2022/04/07 04:09:54;;;;;;;10.27;2.88;;;;;;;;;;4969294;28;20027;-84
2022/04/07 04:12:19;;;;;;;7.25;3.00;;;;;;;;;;4971005;28;20447;-85
2022/04/07 04:14:44;;;;;;;8.60;2.95;;;;;;;;;;4973016;28;20038;-85
2022/04/07 04:17:09;;;;;;;6.13;3.95;;;;;;;;;;4958959;28;20042;-85
2022/04/07 04:19:35;;;;;;;4.47;2.63;;;;;;;;;;4966401;28;20049;-85
2022/04/07 04:22:00;;;;;;;9.95;3.53;;;;;;;;;;4971842;28;20027;-85
2022/04/07 04:24:25;;;;;;;6.82;2.60;;;;;;;;;;4973439;28;20591;-85
2022/04/07 04:26:51;;;;;;;7.22;2.40;;;;;;;;;;4988118;28;20046;-84
2022/04/07 04:29:16;;;;;;;5.00;2.42;;;;;;;;;;4973025;28;20495;-85
2022/04/07 04:31:41;;;;;;;6.47;2.70;;;;;;;;;;4972652;28;20051;-85
2022/04/07 04:34:06;;;;;;;8.52;2.40;;;;;;;;;;4987814;28;20030;-85
2022/04/07 04:36:34;;;;;;;7.18;2.53;;;;;;;;;;4987976;28;20015;-84
2022/04/07 04:38:59;;;;;;;6.00;2.88;;;;;;;;;;4988068;28;20391;-85
2022/04/07 04:41:25;;;;;;;5.85;2.58;;;;;;;;;;4987819;28;20018;-85
2022/04/07 04:43:50;;;;;;;4.32;2.20;;;;;;;;;;4988085;28;20468;-86
2022/04/07 04:46:15;;;;;;;10.55;2.50;;;;;;;;;;4987948;28;20046;-88
2022/04/07 04:48:40;;;;;;;6.63;2.20;;;;;;;;;;4988445;28;20030;-85
2022/04/07 04:51:06;;;;;;;6.97;2.13;;;;;;;;;;4991343;28;20023;-86
2022/04/07 04:53:31;;;;;;;5.15;2.28;;;;;;;;;;4991465;28;20038;-85
2022/04/07 04:55:56;;;;;;;6.65;2.08;;;;;;;;;;4976777;28;20051;-85
2022/04/07 04:58:22;;;;;;;5.85;2.53;;;;;;;;;;4991087;28;20089;-86
2022/04/07 05:00:48;;;;;;;5.18;2.22;;;;;;;;;;4991249;28;20026;-86
2022/04/07 05:03:13;;;;;;;3.85;1.67;;;;;;;;;;4991563;28;20023;-86
2022/04/07 05:05:38;;;;;;;7.15;2.28;;;;;;;;;;4976633;28;20014;-86
2022/04/07 05:08:04;;;;;;;7.00;2.15;;;;;;;;;;4991076;28;20065;-85
2022/04/07 05:10:29;;;;;;;7.90;2.17;;;;;;;;;;4975283;28;20046;-85
2022/04/07 05:12:54;;;;;;;4.93;2.20;;;;;;;;;;4975600;28;20031;-85
2022/04/07 05:15:19;;;;;;;3.38;1.67;;;;;;;;;;4990863;28;20030;-86
2022/04/07 05:17:51;;;;;;;6.43;2.40;;;;;;;;;;4976019;28;20019;-85
2022/04/07 05:20:17;;;;;;;4.38;2.30;;;;;;;;;;4990707;28;20015;-85
2022/04/07 05:22:42;;;;;;;5.85;2.60;;;;;;;;;;4975975;28;20038;-85
2022/04/07 05:25:08;;;;;;;9.52;2.22;;;;;;;;;;4975754;28;20015;-85
2022/04/07 05:27:36;;;;;;;23.75;8.07;;;;;;;;;;4975917;28;20019;-85
2022/04/07 05:30:01;;;;;;;27.42;11.05;;;;;;;;;;4990222;28;20379;-85
2022/04/07 05:32:27;;;;;;;10.60;4.60;;;;;;;;;;4975593;28;20041;-85
2022/04/07 05:34:52;;;;;;;7.03;2.88;;;;;;;;;;4975646;28;20387;-86
2022/04/07 05:37:17;;;;;;;9.40;4.57;;;;;;;;;;4990564;28;20121;-85
2022/04/07 05:39:42;;;;;;;5.82;2.60;;;;;;;;;;4975113;28;20019;-84
2022/04/07 05:42:08;;;;;;;10.02;4.97;;;;;;;;;;4990258;28;20422;-85
2022/04/07 05:44:33;;;;;;;3.70;2.40;;;;;;;;;;4975821;28;20026;-86
2022/04/07 05:46:58;;;;;;;7.13;2.80;;;;;;;;;;4990637;28;20034;-85
2022/04/07 05:49:23;;;;;;;5.13;3.22;;;;;;;;;;4975177;28;20057;-86
2022/04/07 05:51:54;;;;;;;3.47;3.00;;;;;;;;;;4990272;28;20031;-86
2022/04/07 05:54:20;;;;;;;5.25;2.95;;;;;;;;;;4975083;28;20030;-86
2022/04/07 05:56:45;;;;;;;4.85;3.17;;;;;;;;;;4973687;28;20023;-86
2022/04/07 05:59:10;;;;;;;3.47;2.70;;;;;;;;;;4990245;28;20491;-86
2022/04/07 06:01:35;;;;;;;3.35;1.95;;;;;;;;;;4989152;28;20019;-87
2022/04/07 06:04:01;;;;;;;3.53;1.90;;;;;;;;;;4990438;28;20023;-85
2022/04/07 06:06:26;;;;;;;3.78;1.52;;;;;;;;;;4990484;28;20045;-86
2022/04/07 06:08:51;;;;;;;6.38;1.73;;;;;;;;;;4990118;28;20487;-85
2022/04/07 06:11:16;;;;;;;3.10;1.75;;;;;;;;;;4989890;28;20063;-86
2022/04/07 06:13:42;;;;;;;2.85;1.73;;;;;;;;;;4974368;28;20035;-85
2022/04/07 06:16:08;;;;;;;1.50;1.25;;;;;;;;;;4989638;28;20478;-85
2022/04/07 06:18:33;;;;;;;2.40;1.30;;;;;;;;;;4989965;28;20049;-86
2022/04/07 06:20:58;;;;;;;3.60;1.38;;;;;;;;;;4989857;28;20026;-85
2022/04/07 06:23:26;;;;;;;3.08;0.90;;;;;;;;;;4975044;28;20021;-86
2022/04/07 06:25:51;;;;;;;0.95;0.88;;;;;;;;;;4974992;28;20530;-85
2022/04/07 06:28:16;;;;;;;2.20;1.00;;;;;;;;;;4989705;28;20015;-86
2022/04/07 06:30:42;;;;;;;0.98;0.82;;;;;;;;;;4989341;28;20070;-86
2022/04/07 06:33:07;;;;;;;1.02;0.68;;;;;;;;;;4989189;28;20077;-86
2022/04/07 06:35:32;;;;;;;1.17;0.75;;;;;;;;;;4974474;28;20050;-86
2022/04/07 06:37:57;;;;;;;1.40;0.73;;;;;;;;;;4989132;28;20157;-86
2022/04/07 06:40:24;;;;;;;0.65;0.65;;;;;;;;;;4988959;28;20074;-85
2022/04/07 06:42:50;;;;;;;3.28;1.05;;;;;;;;;;4989223;28;20041;-86
2022/04/07 06:45:15;;;;;;;1.08;0.98;;;;;;;;;;4989319;28;20463;-86
2022/04/07 06:47:41;;;;;;;1.48;1.02;;;;;;;;;;4989919;28;20026;-86
2022/04/07 06:50:07;;;;;;;2.45;1.50;;;;;;;;;;4970560;28;20042;-85
2022/04/07 06:52:32;;;;;;;3.20;1.40;;;;;;;;;;4951541;28;20030;-87
2022/04/07 06:54:57;;;;;;;3.60;2.00;;;;;;;;;;4951225;28;20030;-85
2022/04/07 06:57:22;;;;;;;1.92;1.63;;;;;;;;;;4960649;28;20360;-85
2022/04/07 06:59:48;;;;;;;5.97;2.90;;;;;;;;;;4968448;28;20081;-85
2022/04/07 07:02:14;;;;;;;3.50;1.95;;;;;;;;;;4960395;28;20022;-86
2022/04/07 07:04:39;;;;;;;6.72;2.20;;;;;;;;;;4971568;28;20077;-86
2022/04/07 07:07:05;;;;;;;4.82;2.42;;;;;;;;;;4971732;28;20135;-86
2022/04/07 07:09:30;;;;;;;5.57;2.28;;;;;;;;;;4986312;28;20034;-85
2022/04/07 07:11:55;;;;;;;6.90;3.10;;;;;;;;;;4970153;28;20483;-86
2022/04/07 07:14:21;;;;;;;4.45;2.20;;;;;;;;;;4970551;28;20117;-86
2022/04/07 07:16:47;;;;;;;2.97;2.30;;;;;;;;;;4969830;28;20029;-86
2022/04/07 07:19:15;;;;;;;4.30;2.40;;;;;;;;;;4970342;28;20446;-85
2022/04/07 07:21:40;;;;;;;4.47;2.17;;;;;;;;;;4971581;28;20448;-86
2022/04/07 07:24:05;;;;;;;4.10;1.77;;;;;;;;;;4970381;28;20066;-85
2022/04/07 07:26:30;;;;;;;3.83;1.60;;;;;;;;;;4970733;28;20023;-86
2022/04/07 07:28:56;;;;;;;2.83;2.05;;;;;;;;;;4971177;28;20683;-85
2022/04/07 07:31:21;;;;;;;3.42;1.80;;;;;;;;;;4969638;28;20395;-85
2022/04/07 07:33:46;;;;;;;6.30;2.78;;;;;;;;;;4970937;28;20043;-85
2022/04/07 07:36:11;;;;;;;8.20;3.35;;;;;;;;;;4970728;28;20438;-85
2022/04/07 07:38:36;;;;;;;5.63;2.53;;;;;;;;;;4970363;28;20085;-85
2022/04/07 07:41:02;;;;;;;6.68;2.28;;;;;;;;;;4971501;28;20387;-86
2022/04/07 07:43:27;;;;;;;6.40;2.78;;;;;;;;;;4972985;28;20033;-85
2022/04/07 07:45:52;;;;;;;3.78;2.13;;;;;;;;;;4972097;28;20033;-85
2022/04/07 07:48:20;;;;;;;4.60;1.95;;;;;;;;;;4973332;28;20031;-86
2022/04/07 07:50:45;;;;;;;5.25;1.90;;;;;;;;;;4971858;28;20372;-86
2022/04/07 07:53:11;;;;;;;4.10;1.77;;;;;;;;;;4973559;28;20047;-85
2022/04/07 07:55:37;;;;;;;2.30;1.55;;;;;;;;;;4972910;28;21860;-87
2022/04/07 07:58:03;;;;;;;2.55;1.60;;;;;;;;;;4971769;28;20141;-85
2022/04/07 08:00:28;;;;;;;2.47;1.73;;;;;;;;;;4988406;28;20535;-88
2022/04/07 08:02:53;;;;;;;3.45;1.63;;;;;;;;;;4971530;28;20019;-86
2022/04/07 08:05:18;;;;;;;4.15;1.73;;;;;;;;;;4973347;28;20023;-87
2022/04/07 08:07:44;;;;;;;5.13;1.98;;;;;;;;;;4973324;28;20019;-87
2022/04/07 08:10:09;;;;;;;3.40;1.70;;;;;;;;;;4988206;28;20460;-87
2022/04/07 08:12:35;;;;;;;2.58;2.08;;;;;;;;;;4973799;28;20542;-86
2022/04/07 08:15:00;;;;;;;6.13;1.85;;;;;;;;;;4972102;28;20372;-85
2022/04/07 08:17:25;;;;;;;4.18;2.10;;;;;;;;;;4973474;28;20023;-88
2022/04/07 08:19:51;;;;;;;5.47;2.67;;;;;;;;;;4973380;28;20019;-85
2022/04/07 08:22:17;;;;;;;2.10;1.70;;;;;;;;;;4988048;28;20027;-87
2022/04/07 08:24:42;;;;;;;4.15;2.20;;;;;;;;;;4973944;28;20019;-87
2022/04/07 08:27:07;;;;;;;4.47;2.05;;;;;;;;;;4975852;28;20030;-86
2022/04/07 08:29:33;;;;;;;7.30;2.20;;;;;;;;;;4975755;28;20027;-87
2022/04/07 08:31:58;;;;;;;2.20;1.90;;;;;;;;;;4975320;28;20134;-86
2022/04/07 08:34:25;;;;;;;3.17;1.75;;;;;;;;;;4976735;28;20117;-85
2022/04/07 08:36:50;;;;;;;2.65;1.60;;;;;;;;;;4976881;28;20093;-87
2022/04/07 08:39:16;;;;;;;2.47;1.55;;;;;;;;;;4976670;28;20110;-86
2022/04/07 08:41:44;;;;;;;3.58;1.00;;;;;;;;;;4974953;28;20019;-86
2022/04/07 08:44:09;;;;;;;2.28;0.90;;;;;;;;;;4991553;28;20019;-86
2022/04/07 08:46:35;;;;;;;2.47;1.20;;;;;;;;;;4976134;28;20137;-85
2022/04/07 08:49:04;;;;;;;2.65;1.58;;;;;;;;;;4975561;28;20023;-86
2022/04/07 08:51:29;;;;;;;1.55;1.13;;;;;;;;;;4975299;28;20014;-85
2022/04/07 08:53:55;;;;;;;1.48;0.85;;;;;;;;;;4975152;28;20033;-84
2022/04/07 08:56:21;;;;;;;2.28;0.95;;;;;;;;;;4975280;28;20033;-85
2022/04/07 08:58:47;;;;;;;1.60;0.77;;;;;;;;;;4976450;28;20045;-85
2022/04/07 09:01:12;;;;;;;3.45;1.02;;;;;;;;;;4975780;28;20023;-85
2022/04/07 09:03:37;;;;;;;1.70;1.17;;;;;;;;;;4975142;28;20044;-85
2022/04/07 09:06:03;;;;;;;2.10;1.02;;;;;;;;;;4976109;28;20475;-84
2022/04/07 09:08:32;;;;;;;0.85;0.85;;;;;;;;;;4974880;28;20069;-85
2022/04/07 09:10:59;;;;;;;1.20;1.10;;;;;;;;;;4976239;28;20077;-86
2022/04/07 09:13:27;;;;;;;1.75;1.15;;;;;;;;;;4991242;28;20033;-86
2022/04/07 09:15:53;;;;;;;4.28;1.35;;;;;;;;;;4976197;28;20045;-85
2022/04/07 09:18:22;;;;;;;1.70;1.05;;;;;;;;;;4975101;28;20467;-85
2022/04/07 09:20:47;;;;;;;2.05;1.40;;;;;;;;;;4974646;28;20026;-85
2022/04/07 09:23:12;;;;;;;2.65;1.30;;;;;;;;;;4975668;28;20386;-84
2022/04/07 09:25:43;;;;;;;2.17;1.10;;;;;;;;;;4990363;28;20475;-85
2022/04/07 09:28:09;;;;;;;1.65;1.17;;;;;;;;;;4973884;28;20019;-83
2022/04/07 09:30:37;;;;;;;1.10;0.93;;;;;;;;;;4974057;28;20475;-82
2022/04/07 09:33:03;;;;;;;0.98;0.55;;;;;;;;;;4990663;28;20395;-84
2022/04/07 09:35:28;;;;;;;1.77;0.88;;;;;;;;;;4990066;28;20019;-84
2022/04/07 09:38:00;;;;;;;1.60;0.60;;;;;;;;;;4975832;28;20030;-86
2022/04/07 09:40:25;;;;;;;0.93;0.50;;;;;;;;;;4990971;28;20042;-85
2022/04/07 09:42:58;;;;;;;0.40;0.40;;;;;;;;;;4990782;28;20109;-85
2022/04/07 09:45:23;;;;;;;1.00;0.80;;;;;;;;;;4975957;28;20030;-83
2022/04/07 09:47:49;;;;;;;4.80;0.30;;;;;;;;;;4975842;28;20019;-84
2022/04/07 09:50:23;;;;;;;1.13;0.30;;;;;;;;;;4974737;28;20027;-83
2022/04/07 09:52:56;;;;;;;0.77;0.65;;;;;;;;;;4976235;28;20124;-87
2022/04/07 09:55:23;;;;;;;0.25;0.25;;;;;;;;;;4975766;28;20022;-87
2022/04/07 09:57:48;;;;;;;0.63;0.40;;;;;;;;;;4975805;28;20023;-87
2022/04/07 10:00:14;;;;;;;2.35;0.40;;;;;;;;;;4990593;28;20562;-85
2022/04/07 10:02:40;;;;;;;3.58;0.80;;;;;;;;;;4975700;28;20019;-83
2022/04/07 10:05:07;;;;;;;3.58;0.93;;;;;;;;;;4974390;28;20109;-82
2022/04/07 10:07:33;;;;;;;2.75;1.10;;;;;;;;;;4974353;28;20374;-85
2022/04/07 10:10:00;;;;;;;3.75;0.82;;;;;;;;;;4975864;28;20031;-90
2022/04/07 10:12:26;;;;;;;1.77;0.60;;;;;;;;;;4975664;28;20077;-85
2022/04/07 10:14:52;;;;;;;2.88;0.77;;;;;;;;;;4990451;28;20027;-88
2022/04/07 10:17:17;;;;;;;3.67;0.75;;;;;;;;;;4974626;28;20026;-84
2022/04/07 10:19:51;;;;;;;3.22;0.70;;;;;;;;;;4990566;28;20399;-86
2022/04/07 10:22:35;;;;;;;3.47;1.02;;;;;;;;;;4974426;28;20023;-88
2022/04/07 10:25:03;;;;;;;5.32;1.00;;;;;;;;;;4988237;28;20022;-88
2022/04/07 10:27:30;;;;;;;5.13;0.77;;;;;;;;;;4988916;28;20078;-86
2022/04/07 10:30:03;;;;;;;4.85;0.85;;;;;;;;;;4975621;28;20030;-86
2022/04/07 10:32:35;;;;;;;2.35;0.80;;;;;;;;;;4964155;28;20031;-86
2022/04/07 10:35:00;;;;;;;2.88;0.60;;;;;;;;;;4959674;28;20565;-87
2022/04/07 10:37:45;;;;;;;4.60;0.80;;;;;;;;;;4986385;28;20023;-86
2022/04/07 10:40:29;;;;;;;4.40;1.30;;;;;;;;;;4955182;28;20431;-87
2022/04/07 10:43:06;;;;;;;6.68;1.70;;;;;;;;;;4972743;28;20054;-84
2022/04/07 10:45:34;;;;;;;1.42;0.85;;;;;;;;;;4974153;28;20029;-85
2022/04/07 10:48:15;;;;;;;4.35;1.05;;;;;;;;;;4970491;28;20368;-85
2022/04/07 10:50:44;;;;;;;6.75;1.10;;;;;;;;;;4966764;28;20468;-84
2022/04/07 10:53:17;;;;;;;8.57;1.38;;;;;;;;;;4971537;28;20475;-84
2022/04/07 10:55:54;;;;;;;8.10;1.77;;;;;;;;;;4966182;28;20113;-84
2022/04/07 10:58:20;;;;;;;4.95;1.02;;;;;;;;;;4973206;28;20042;-84
2022/04/07 11:00:45;;;;;;;6.82;1.55;;;;;;;;;;4972959;28;20090;-85
2022/04/07 11:03:18;;;;;;;7.45;1.55;;;;;;;;;;4971171;28;20022;-85
2022/04/07 11:05:59;;;;;;;6.82;1.17;;;;;;;;;;4971509;28;20489;-85
2022/04/07 11:08:25;;;;;;;;;;;;;;;;;;4972350;28;20098;-84
2022/04/07 11:10:52;;;;;;;5.78;1.27;;;;;;;;;;4972473;28;20410;-84
2022/04/07 11:13:19;;;;;;;8.95;1.50;;;;;;;;;;4972314;28;20484;-86
2022/04/07 11:15:51;;;;;;;6.95;1.48;;;;;;;;;;4972151;28;20023;-86
2022/04/07 11:18:34;;;;;;;8.60;1.17;;;;;;;;;;4971175;28;20069;-84
2022/04/07 11:21:07;;;;;;;5.20;1.00;;;;;;;;;;4971432;28;20018;-85
2022/04/07 11:23:38;;;;;;;6.38;1.33;;;;;;;;;;4971485;28;20030;-86
2022/04/07 11:26:19;;;;;;;7.90;1.00;;;;;;;;;;4985941;28;20023;-85
2022/04/07 11:28:44;;;;;;;;;;;;;;;;;;4971010;28;20269;-86
2022/04/07 11:31:09;;;;;;;4.65;1.20;;;;;;;;;;4972278;28;19906;-84
2022/04/07 11:33:38;;;;;;;6.55;1.48;;;;;;;;;;4970406;28;20280;-85
2022/04/07 11:36:04;;;;;;;5.38;1.25;;;;;;;;;;4986791;28;20029;-86
2022/04/07 11:38:52;;;;;;;5.22;0.63;;;;;;;;;;4986486;28;20030;-87
2022/04/07 11:41:18;;;;;;;6.93;1.00;;;;;;;;;;4973236;28;20026;-84
2022/04/07 11:43:53;;;;;;;4.13;1.08;;;;;;;;;;4973094;28;20034;-86
2022/04/07 11:46:28;;;;;;;7.95;1.10;;;;;;;;;;4972085;28;20074;-85
2022/04/07 11:48:57;;;;;;;5.68;0.90;;;;;;;;;;4973169;28;20039;-86
2022/04/07 11:51:23;;;;;;;9.48;1.17;;;;;;;;;;4973413;28;20511;-87
2022/04/07 11:53:52;;;;;;;8.15;1.10;;;;;;;;;;4973610;28;20036;-86
2022/04/07 11:56:32;;;;;;;7.15;1.20;;;;;;;;;;4973364;28;20451;-86
2022/04/07 11:58:58;;;;;;;8.80;1.38;;;;;;;;;;4973221;28;20026;-89
2022/04/07 12:01:24;;;;;;;9.00;1.45;;;;;;;;;;4976783;28;20466;-86
2022/04/07 12:03:56;;;;;;;10.52;1.40;;;;;;;;;;4977889;28;20025;-83
2022/04/07 12:06:22;;;;;;;3.65;1.38;;;;;;;;;;4977982;28;20015;-85
2022/04/07 12:08:48;;;;;;;5.95;1.35;;;;;;;;;;4978227;28;20027;-83
2022/04/07 12:11:13;;;;;;;13.43;2.47;;;;;;;;;;4977395;28;20092;-88
2022/04/07 12:13:38;;;;;;;6.20;1.27;;;;;;;;;;4977495;28;20081;-87
2022/04/07 12:16:07;;;;;;;8.90;1.30;;;;;;;;;;4977374;28;20448;-82
2022/04/07 12:18:32;;;;;;;8.43;1.17;;;;;;;;;;4977261;28;20127;-87
2022/04/07 12:21:02;;;;;;;7.18;1.77;;;;;;;;;;4977183;28;20061;-86
2022/04/07 12:23:27;;;;;;;7.95;1.60;;;;;;;;;;4977621;28;20464;-88
2022/04/07 12:25:57;;;;;;;4.28;1.23;;;;;;;;;;4977946;28;20026;-90
2022/04/07 12:28:22;;;;;;;5.45;1.35;;;;;;;;;;4978007;28;20022;-89
2022/04/07 12:30:52;;;;;;;9.02;1.60;;;;;;;;;;4977737;28;20475;-89
2022/04/07 12:33:36;;;;;;;5.78;1.17;;;;;;;;;;4977556;28;20033;-88
2022/04/07 12:36:01;;;;;;;2.35;1.17;;;;;;;;;;4977370;28;20134;-90
2022/04/07 12:38:26;;;;;;;7.18;1.20;;;;;;;;;;4976962;28;20463;-85
2022/04/07 12:40:52;;;;;;;6.38;1.27;;;;;;;;;;4975975;28;20018;-87
2022/04/07 12:43:17;;;;;;;5.38;1.40;;;;;;;;;;4977112;28;20542;-89
2022/04/07 12:45:55;;;;;;;18.90;1.92;;;;;;;;;;4975291;28;20019;-85
2022/04/07 12:48:23;;;;;;;6.57;1.55;;;;;;;;;;4976795;28;20027;-85
2022/04/07 12:50:48;;;;;;;11.02;1.30;;;;;;;;;;4977098;28;20019;-87
2022/04/07 12:53:34;;;;;;;4.80;1.40;;;;;;;;;;4977002;28;20046;-90
2022/04/07 12:56:02;;;;;;;7.75;1.73;;;;;;;;;;4975767;28;20113;-90
2022/04/07 12:58:28;;;;;;;11.07;1.60;;;;;;;;;;4976973;28;20018;-89
2022/04/07 13:01:00;;;;;;;6.72;1.27;;;;;;;;;;4975726;28;20054;-86
2022/04/07 13:03:28;;;;;;;9.65;1.60;;;;;;;;;;4976292;28;20031;-88
2022/04/07 13:05:54;;;;;;;9.60;1.48;;;;;;;;;;4976680;28;20181;-84
2022/04/07 13:08:19;;;;;;;11.23;1.58;;;;;;;;;;4976198;28;20105;-82
2022/04/07 13:10:44;;;;;;;13.27;1.20;;;;;;;;;;4975167;28;20027;-84
2022/04/07 13:13:10;;;;;;;8.27;1.70;;;;;;;;;;4974493;28;20034;-85
2022/04/07 13:15:35;;;;;;;8.90;1.70;;;;;;;;;;4974235;28;20022;-85
2022/04/07 13:18:01;;;;;;;8.98;1.65;;;;;;;;;;4975702;28;20022;-84
2022/04/07 13:20:27;;;;;;;13.63;1.60;;;;;;;;;;4974645;28;20538;-82
